Latest Weather Observations for Shepparton

IDV60801

Issued at 1:03 pm EDT Tuesday 21 November 2017 (issued every 30 minutes, with the page automatically refreshed every 10 minutes)

About weather observations | Map of weather stations | Latest weather observations for VIC | Other Formats
Station Details ID: 081125 Name: SHEPPARTON AIRPORT Lat: -36.43 Lon: 145.39 Height: 113.9 m
Data from the previous 72 hours. | See also: Recent months at Shepparton
Date/Time
EDT
Temp
°C
App
Temp
°C
Dew
Point
°C
Rel
Hum
%
Delta-T
°C
Wind Press
QNH
hPa
Press
MSL
hPa
Rain since
9am
mm
Dir  Spd
km/h
Gust
km/h
Spd
kts
Gust
kts
21/01:00pm 28.0 26.8 11.5 35 9.5 ENE 9 15 5 8 1020.5 1020.2 0.0
21/12:30pm 27.5 26.2 11.1 36 9.3 NNE 9 19 5 10 1020.9 1020.6 0.0
21/12:00pm 26.4 24.9 10.5 37 8.9 NE 9 20 5 11 1021.3 1021.0 0.0
21/11:30am 25.3 23.4 10.4 39 8.3 N 11 22 6 12 1021.7 1021.4 0.0
21/11:00am 25.6 23.0 10.6 39 8.4 NNE 15 26 8 14 1021.7 1021.4 0.0
21/10:30am 25.2 22.7 12.4 45 7.4 NNE 17 28 9 15 1021.9 1021.6 0.0
21/10:00am 23.7 20.3 11.4 46 6.9 NNE 20 28 11 15 1022.0 1021.7 0.0
21/09:30am 23.0 19.3 11.4 48 6.5 NE 22 30 12 16 1022.0 1021.7 0.0
21/09:00am 21.2 17.5 11.5 54 5.4 NE 22 32 12 17 1022.1 1021.8 0.0
21/08:30am 20.6 17.5 12.1 58 4.8 NE 20 28 11 15 1022.0 1021.7 0.0
21/08:00am 19.6 17.3 11.9 61 4.3 NE 15 22 8 12 1022.1 1021.8 0.0
21/07:30am 18.4 17.2 11.7 65 3.7 ENE 9 17 5 9 1022.1 1021.8 0.0
21/07:00am 18.0 16.7 11.1 64 3.7 ENE 9 13 5 7 1021.8 1021.5 0.0
21/06:30am 17.1 15.4 11.2 68 3.2 ENE 11 13 6 7 1021.3 1021.0 0.0
21/06:00am 16.8 14.9 10.6 67 3.3 ENE 11 15 6 8 1020.9 1020.6 0.0
21/05:30am 16.6 15.1 10.5 67 3.3 ENE 9 13 5 7 1020.5 1020.2 0.0
21/05:00am 14.7 13.5 10.3 75 2.3 ENE 7 9 4 5 1020.2 1019.9 0.0
21/04:30am 14.3 13.5 10.9 80 1.8 E 6 7 3 4 1020.0 1019.7 0.0
21/04:00am 14.3 14.7 11.1 81 1.7 CALM 0 0 0 0 1019.9 1019.6 0.0
21/03:30am 14.7 14.1 10.3 75 2.3 NE 4 7 2 4 1020.0 1019.7 0.0
21/03:00am 16.0 14.9 10.5 70 2.9 ENE 7 9 4 5 1020.0 1019.7 0.0
21/02:30am 14.6 14.2 11.0 79 1.9 ESE 4 7 2 4 1020.2 1019.9 0.0
21/02:00am 15.1 13.8 10.1 72 2.6 ESE 7 9 4 5 1020.2 1019.9 0.0
21/01:30am 15.4 15.4 11.0 75 2.4 SSE 2 6 1 3 1020.3 1020.0 0.0
21/01:00am 15.9 16.5 11.9 77 2.2 CALM 0 0 0 0 1020.4 1020.1 0.0
21/12:30am 16.1 15.5 11.7 75 2.4 ESE 6 9 3 5 1020.5 1020.2 0.0
21/12:00am 16.8 17.4 11.9 73 2.7 CALM 0 0 0 0 1020.5 1020.2 0.0
 
Date/Time
EDT
Temp
°C
App
Temp
°C
Dew
Point
°C
Rel
Hum
%
Delta-T
°C
Wind Press
QNH
hPa
Press
MSL
hPa
Rain since
9am
mm
Dir  Spd
km/h
Gust
km/h
Spd
kts
Gust
kts
20/11:30pm 17.1 17.7 11.8 71 2.9 CALM 0 0 0 0 1020.4 1020.1 0.0
20/11:00pm 18.0 18.8 12.5 70 3.1 CALM 0 0 0 0 1020.3 1020.0 0.0
20/10:30pm 18.9 19.2 11.0 60 4.3 CALM 0 0 0 0 1020.2 1019.9 0.0
20/10:00pm 19.9 20.2 10.9 56 4.9 CALM 0 0 0 0 1020.0 1019.7 0.0
20/09:30pm 21.3 21.4 10.2 49 6.1 CALM 0 0 0 0 1019.7 1019.4 0.0
20/09:00pm 22.4 21.6 6.6 36 8.1 CALM 0 0 0 0 1019.3 1019.0 0.0
20/08:30pm 24.8 22.2 6.1 30 9.7 N 9 9 5 5 1019.1 1018.9 0.0
20/08:00pm 26.0 23.0 6.1 28 10.3 N 11 15 6 8 1019.1 1018.9 0.0
20/07:30pm 28.4 24.5 5.3 23 12.0 N 15 19 8 10 1018.8 1018.6 0.0
20/07:00pm 29.3 25.8 5.4 22 12.5 N 13 19 7 10 1018.6 1018.4 0.0
20/06:30pm 30.4 29.2 6.3 22 12.9 E 2 7 1 4 1018.5 1018.3 0.0
20/06:00pm 30.2 27.8 6.8 23 12.6 NE 9 17 5 9 1018.6 1018.4 0.0
20/05:30pm 30.3 27.1 6.9 23 12.6 NNE 13 20 7 11 1018.7 1018.5 0.0
20/05:00pm 30.1 27.8 7.3 24 12.4 NNE 9 17 5 9 1018.9 1018.7 0.0
20/04:30pm 29.9 28.1 7.2 24 12.3 WNW 6 17 3 9 1019.0 1018.8 0.0
20/04:00pm 30.1 28.1 8.5 26 11.9 NNW 9 17 5 9 1019.5 1019.2 0.0
20/03:30pm 29.1 27.5 8.2 27 11.5 WNW 6 13 3 7 1020.0 1019.7 0.0
20/03:00pm 29.2 28.3 10.8 32 10.5 NW 6 15 3 8 1020.4 1020.1 0.0
20/02:30pm 27.9 25.4 9.7 32 10.2 NNE 13 24 7 13 1020.9 1020.6 0.0
20/02:00pm 27.4 25.8 10.2 34 9.6 NE 9 19 5 10 1021.4 1021.1 0.0
20/01:30pm 27.3 26.0 10.1 34 9.7 NE 7 15 4 8 1021.8 1021.5 0.0
20/01:00pm 26.7 24.0 9.1 33 9.7 ENE 13 20 7 11 1022.4 1022.1 0.0
20/12:30pm 26.3 24.4 10.5 37 8.9 NNE 11 19 6 10 1022.9 1022.6 0.0
20/12:00pm 25.8 23.4 10.0 37 8.8 NNE 13 20 7 11 1023.2 1022.9 0.0
20/11:30am 24.8 23.0 11.0 42 7.8 NNE 11 20 6 11 1023.6 1023.4 0.0
20/11:00am 24.3 22.3 11.6 45 7.2 NE 13 22 7 12 1023.9 1023.7 0.0
20/10:30am 24.0 21.3 11.7 46 7.0 NE 17 24 9 13 1024.2 1024.0 0.0
20/10:00am 23.7 21.2 12.4 49 6.5 NNE 17 26 9 14 1024.4 1024.2 0.0
20/09:30am 21.9 18.7 11.3 51 5.9 NNE 19 28 10 15 1024.5 1024.3 0.0
20/09:00am 21.1 17.7 11.2 53 5.5 NNE 20 30 11 16 1024.6 1024.4 0.0
20/08:30am 20.0 16.7 11.5 58 4.7 NNE 20 30 11 16 1024.4 1024.2 0.0
20/08:00am 19.4 17.3 12.4 64 3.9 NE 15 22 8 12 1024.1 1023.9 0.0
20/07:30am 18.3 16.4 11.8 66 3.6 NE 13 20 7 11 1023.8 1023.6 0.0
20/07:00am 17.6 15.7 11.9 69 3.1 ENE 13 17 7 9 1023.3 1023.1 0.0
20/06:30am 16.3 14.7 11.7 74 2.5 E 11 13 6 7 1022.9 1022.6 0.0
20/06:00am 16.2 14.9 11.4 73 2.6 ENE 9 13 5 7 1022.4 1022.1 0.0
20/05:30am 16.5 14.8 11.2 71 2.9 ENE 11 15 6 8 1021.9 1021.6 0.0
20/05:00am 16.6 15.3 11.1 70 3.0 E 9 13 5 7 1021.7 1021.4 0.0
20/04:30am 17.8 15.7 11.1 65 3.6 NE 13 20 7 11 1021.4 1021.1 0.0
20/04:00am 18.5 15.6 11.1 62 4.0 NNE 17 26 9 14 1021.3 1021.0 0.0
20/03:30am 18.4 15.9 11.0 62 4.0 NNE 15 20 8 11 1021.2 1020.9 0.0
20/03:00am 17.9 16.1 10.8 63 3.8 NNE 11 19 6 10 1021.1 1020.8 0.0
20/02:30am 17.8 16.3 10.4 62 4.0 NE 9 17 5 9 1021.1 1020.8 0.0
20/02:00am 16.0 15.5 12.0 77 2.2 NE 6 7 3 4 1020.9 1020.6 0.0
20/01:30am 15.9 17.1 13.7 87 1.2 CALM 0 0 0 0 1020.7 1020.4 0.0
20/01:00am 15.2 16.0 12.5 84 1.5 CALM 0 0 0 0 1020.5 1020.2 0.0
20/12:30am 16.4 17.5 13.5 83 1.6 CALM 0 0 0 0 1020.6 1020.3 0.0
20/12:00am 16.8 18.2 14.3 85 1.4 CALM 0 0 0 0 1020.4 1020.1 0.0
 
Date/Time
EDT
Temp
°C
App
Temp
°C
Dew
Point
°C
Rel
Hum
%
Delta-T
°C
Wind Press
QNH
hPa
Press
MSL
hPa
Rain since
9am
mm
Dir  Spd
km/h
Gust
km/h
Spd
kts
Gust
kts
19/11:30pm 17.0 18.2 13.9 82 1.8 CALM 0 0 0 0 1020.3 1020.0 0.0
19/11:00pm 17.6 18.8 13.9 79 2.1 CALM 0 0 0 0 1020.1 1019.8 0.0
19/10:30pm 18.6 20.0 14.3 76 2.5 CALM 0 0 0 0 1019.9 1019.6 0.0
19/10:00pm 19.8 21.0 13.7 68 3.5 CALM 0 0 0 0 1019.8 1019.5 0.0
19/09:30pm 20.3 21.4 13.5 65 3.9 CALM 0 0 0 0 1019.5 1019.2 0.0
19/09:00pm 22.4 21.8 11.8 51 6.0 ENE 6 7 3 4 1019.1 1018.9 0.0
19/08:30pm 23.7 24.2 11.7 47 6.8 CALM 0 0 0 0 1019.0 1018.8 0.0
19/08:00pm 25.5 24.7 10.9 40 8.2 E 6 7 3 4 1018.8 1018.6 0.0
19/07:30pm 26.9 25.4 10.6 36 9.2 NE 9 13 5 7 1018.7 1018.5 0.0
19/07:00pm 27.4 26.2 9.7 33 9.9 ESE 6 9 3 5 1018.7 1018.5 0.0
19/06:30pm 28.0 24.8 9.8 32 10.2 ESE 17 20 9 11 1018.6 1018.4 0.0
19/06:00pm 28.0 26.2 9.3 31 10.4 ENE 9 17 5 9 1018.5 1018.3 0.0
19/05:30pm 28.4 27.3 10.1 32 10.3 E 6 20 3 11 1018.6 1018.4 0.0
19/05:00pm 27.3 25.3 10.1 34 9.6 ENE 11 20 6 11 1018.8 1018.6 0.0
19/04:30pm 28.0 26.8 10.2 33 10.0 E 7 13 4 7 1018.8 1018.6 0.0
19/04:00pm 28.9 26.5 11.5 34 10.1 E 15 30 8 16 1018.8 1018.6 0.0
19/03:30pm 27.4 25.3 11.0 36 9.4 ENE 13 19 7 10 1019.1 1018.9 0.0
19/03:00pm 27.7 25.4 10.4 34 9.8 ENE 13 26 7 14 1019.4 1019.1 0.0
19/02:30pm 26.4 24.3 11.3 39 8.6 NE 13 24 7 13 1019.8 1019.5 0.0
19/02:00pm 25.9 23.9 11.6 40 8.2 ENE 13 20 7 11 1020.2 1019.9 0.0
19/01:30pm 25.4 23.1 11.9 43 7.7 ENE 15 20 8 11 1020.6 1020.3 0.0
19/01:00pm 24.9 23.0 11.8 44 7.5 ENE 13 22 7 12 1020.9 1020.6 0.0
19/12:30pm 24.6 23.1 11.9 45 7.3 ENE 11 15 6 8 1021.0 1020.7 0.0
19/12:00pm 26.1 24.2 12.9 44 7.7 NE 15 24 8 13 1021.4 1021.1 0.0
19/11:30am 25.6 24.0 12.8 45 7.5 NE 13 26 7 14 1021.4 1021.1 0.0
19/11:00am 24.5 22.2 13.1 49 6.6 NNE 17 32 9 17 1021.4 1021.1 0.0
19/10:30am 23.7 20.3 12.4 49 6.5 NNE 22 30 12 16 1021.4 1021.1 0.0
19/10:00am 23.1 19.4 12.7 52 6.0 NNE 24 32 13 17 1021.2 1020.9 0.0
19/09:30am 22.2 18.7 12.2 53 5.7 NE 22 33 12 18 1021.2 1020.9 0.0
19/09:00am 21.5 18.5 12.4 56 5.2 NE 20 32 11 17 1021.2 1020.9 2.2
19/08:30am 21.4 18.5 12.3 56 5.2 NE 19 32 10 17 1020.9 1020.6 2.2
19/08:00am 19.9 18.0 13.1 65 3.9 ENE 15 19 8 10 1020.6 1020.3 2.2
19/07:30am 18.6 17.2 13.5 72 2.9 ENE 13 19 7 10 1020.1 1019.8 2.2
19/07:00am 17.5 16.6 13.8 79 2.1 ENE 11 15 6 8 1019.9 1019.6 2.2
19/06:30am 16.4 16.0 14.1 86 1.3 ENE 9 13 5 7 1019.5 1019.2 2.2
19/06:00am 15.5 15.3 13.5 88 1.1 E 7 9 4 5 1019.0 1018.8 2.2
19/05:30am 15.9 16.7 13.6 86 1.3 E 2 11 1 6 1018.9 1018.7 2.2
19/05:00am 16.7 16.3 14.0 84 1.5 E 9 13 5 7 1018.8 1018.6 2.2
19/04:30am 16.6 15.9 14.4 87 1.3 E 11 15 6 8 1018.7 1018.5 2.2
19/04:00am 16.1 15.8 14.3 89 1.0 E 9 13 5 7 1018.7 1018.5 2.2
19/03:30am 15.5 14.8 14.4 93 0.6 ESE 11 13 6 7 1018.8 1018.6 2.2
19/03:00am 15.7 15.9 14.2 91 0.9 SE 6 7 3 4 1018.9 1018.7 2.2
19/02:30am 16.2 15.4 14.0 87 1.3 ESE 11 17 6 9 1018.8 1018.6 2.2
19/02:00am 16.4 16.6 14.6 89 1.0 E 7 9 4 5 1018.8 1018.6 2.2
19/01:30am 15.9 15.6 14.3 90 0.9 E 9 11 5 6 1018.6 1018.4 2.2
19/01:00am 16.4 16.5 14.4 88 1.1 ESE 7 9 4 5 1018.7 1018.5 2.2
19/12:30am 17.5 17.6 14.4 82 1.8 ENE 7 11 4 6 1018.7 1018.5 2.2
19/12:00am 17.7 17.9 14.8 83 1.7 ENE 7 9 4 5 1018.5 1018.3 2.2
 
Date/Time
EDT
Temp
°C
App
Temp
°C
Dew
Point
°C
Rel
Hum
%
Delta-T
°C
Wind Press
QNH
hPa
Press
MSL
hPa
Rain since
9am
mm
Dir  Spd
km/h
Gust
km/h
Spd
kts
Gust
kts
18/11:30pm 17.5 17.2 14.4 82 1.8 E 9 13 5 7 1018.3 1018.1 2.2
18/11:00pm 18.4 17.6 15.1 81 1.9 E 13 17 7 9 1018.0 1017.8 2.2
18/10:30pm 18.3 17.4 14.8 80 2.0 E 13 19 7 10 1017.6 1017.4 2.2
18/10:00pm 18.4 17.4 14.5 78 2.3 E 13 15 7 8 1017.4 1017.2 2.2
18/09:30pm 19.4 19.2 13.6 69 3.3 ENE 7 13 4 7 1017.0 1016.8 2.2
18/09:00pm 20.0 18.5 13.0 64 4.0 E 13 17 7 9 1016.6 1016.4 2.2
18/08:30pm 20.9 19.2 12.6 59 4.7 ENE 13 20 7 11 1016.5 1016.3 2.2
18/08:00pm 21.4 20.7 13.1 59 4.8 ENE 9 13 5 7 1016.3 1016.1 2.2
18/07:30pm 22.4 20.5 12.9 55 5.5 ENE 15 20 8 11 1016.2 1016.0 2.2
18/07:00pm 23.0 22.1 14.8 60 4.9 NE 13 20 7 11 1016.0 1015.8 2.2
18/06:30pm 23.8 21.9 14.2 55 5.7 NNE 17 24 9 13 1015.8 1015.6 2.0
18/06:00pm 23.6 21.2 13.8 54 5.7 NNE 19 24 10 13 1015.9 1015.7 2.0
18/05:30pm 23.5 20.6 12.8 51 6.2 NNE 20 30 11 16 1016.0 1015.8 2.0
18/05:00pm 24.1 21.5 13.9 53 6.0 NNE 20 30 11 16 1016.1 1015.9 2.0
18/04:30pm 23.4 21.0 14.4 57 5.3 NE 20 32 11 17 1016.2 1016.0 2.0
18/04:00pm 24.1 22.3 16.1 61 4.9 NE 20 30 11 16 1016.0 1015.8 2.0
18/03:30pm 22.9 24.2 18.4 76 2.8 ENE 9 17 5 9 1016.0 1015.8 2.0
18/03:00pm 18.6 19.5 16.2 86 1.4 SE 6 9 3 5 1016.4 1016.2 2.0
18/02:30pm 16.1 15.8 14.5 90 0.9 ENE 9 15 5 8 1017.1 1016.9 2.0
18/02:00pm 17.1 15.2 14.2 83 1.7 ENE 17 28 9 15 1017.2 1017.0 0.8
18/01:30pm 20.3 16.9 14.7 70 3.3 NE 26 41 14 22 1016.7 1016.5 0.0

Other Formats:

Comma delimited format used in spreadsheet applications
http://www.bom.gov.au/fwo/IDV60801/IDV60801.94875.axf

JavaScript Object Notation format (JSON) in row-major order
http://www.bom.gov.au/fwo/IDV60801/IDV60801.94875.json